createdAt,value
2023-05-18T00:02:40.021Z,656.00
2023-05-18T00:07:08.980Z,688.10
2023-05-18T00:28:35.781Z,663.10
2023-05-18T00:33:05.081Z,698.10
2023-05-18T00:41:30.285Z,656.90
2023-05-18T00:45:59.040Z,699.70
2023-05-18T01:03:25.091Z,642.60
2023-05-18T01:07:54.781Z,707.00
2023-05-18T01:27:11.667Z,666.70
2023-05-18T01:31:40.456Z,720.80
2023-05-18T01:49:04.126Z,706.30
2023-05-18T01:53:35.762Z,744.90
2023-05-18T02:10:55.414Z,221.20
2023-05-18T02:15:24.127Z,261.90
2023-05-18T02:19:55.845Z,226.00
2023-05-18T02:37:21.387Z,93.50
2023-05-18T02:41:50.338Z,62.50
2023-05-18T02:59:10.681Z,100.20
2023-05-18T03:03:39.479Z,44.60
2023-05-18T03:29:37.627Z,317.90
2023-05-18T03:34:06.332Z,120.90
2023-05-18T03:38:35.003Z,149.20
2023-05-18T03:43:04.662Z,202.10
2023-05-18T03:47:35.248Z,260.40
2023-05-18T03:56:00.040Z,674.10
2023-05-18T04:00:29.463Z,558.80
2023-05-18T04:04:38.384Z,627.20
2023-05-18T04:09:08.012Z,599.80
2023-05-18T04:13:39.478Z,689.70
2023-05-18T04:35:26.341Z,904.20
2023-05-18T04:39:56.016Z,838.10
2023-05-18T05:04:00.789Z,694.70
2023-05-18T05:08:30.164Z,915.60
2023-05-18T05:12:58.876Z,893.90
2023-05-18T05:34:46.024Z,638.50
2023-05-18T05:39:15.867Z,676.00
2023-05-18T05:56:29.997Z,626.50
2023-05-18T05:59:58.520Z,654.00
2023-05-18T06:02:55.017Z,637.60
2023-05-18T06:05:45.703Z,634.40
2023-05-18T06:09:15.390Z,635.10
2023-05-18T06:13:45.313Z,651.20
2023-05-18T06:17:04.110Z,644.50
2023-05-18T06:19:54.086Z,631.40
2023-05-18T06:23:05.348Z,631.90
2023-05-18T06:26:12.956Z,634.20
2023-05-18T06:29:19.449Z,818.50
2023-05-18T06:32:49.585Z,642.90
2023-05-18T06:42:36.599Z,630.50
2023-05-18T06:45:47.761Z,836.10
2023-05-18T06:49:18.495Z,639.70
2023-05-18T06:53:45.777Z,648.30
2023-05-18T06:57:21.620Z,827.50
2023-05-18T07:00:46.092Z,833.10
2023-05-18T07:35:49.122Z,653.40
2023-05-18T07:39:53.139Z,653.90
2023-05-18T07:43:37.233Z,652.10
2023-05-18T07:48:03.662Z,657.30
2023-05-18T07:52:01.744Z,816.20
2023-05-18T08:17:14.919Z,660.20
2023-05-18T08:21:32.964Z,662.70
2023-05-18T08:26:02.215Z,677.00
2023-05-18T08:30:24.912Z,674.60
2023-05-18T08:34:25.771Z,685.00
2023-05-18T08:38:36.839Z,685.70
2023-05-18T08:42:49.984Z,670.80
2023-05-18T08:47:24.032Z,689.50
2023-05-18T08:51:35.625Z,679.30
2023-05-18T08:56:08.092Z,673.40
2023-05-18T09:00:02.507Z,671.00
2023-05-18T09:04:31.658Z,675.60
2023-05-18T09:09:01.163Z,800.20
2023-05-18T09:12:43.255Z,786.50
2023-05-18T09:37:52.736Z,663.20
2023-05-18T09:43:28.659Z,659.40
2023-05-18T09:46:23.009Z,672.90
2023-05-18T09:49:24.961Z,661.70
2023-05-18T09:53:08.896Z,662.50
2023-05-18T09:56:37.144Z,781.70
2023-05-18T10:00:39.125Z,770.50
2023-05-18T10:04:04.243Z,653.30
2023-05-18T10:06:49.966Z,656.30
2023-05-18T10:09:53.340Z,667.70
2023-05-18T10:12:53.523Z,664.60
2023-05-18T10:15:59.939Z,786.40
2023-05-18T10:20:20.965Z,666.50
2023-05-18T10:23:11.978Z,785.30
2023-05-18T10:26:06.473Z,785.80
2023-05-18T10:31:46.087Z,770.20
2023-05-18T10:34:29.404Z,783.40
2023-05-18T10:37:43.099Z,783.70
2023-05-18T10:40:39.353Z,772.60
2023-05-18T10:43:32.926Z,770.90
2023-05-18T10:46:25.972Z,777.90
2023-05-18T10:50:05.223Z,769.10
2023-05-18T10:53:33.474Z,772.20
2023-05-18T10:56:45.523Z,775.50
2023-05-18T10:59:26.259Z,774.60
2023-05-18T11:02:08.561Z,769.50
2023-05-18T11:05:36.867Z,352.90
2023-05-18T11:08:29.407Z,782.30
2023-05-18T11:12:02.289Z,774.80
2023-05-18T11:15:17.700Z,768.70
2023-05-18T11:19:29.574Z,774.60
2023-05-18T11:23:41.783Z,773.70
2023-05-18T11:26:55.375Z,768.70
2023-05-18T11:30:35.943Z,776.90
2023-05-18T11:33:38.711Z,776.10
2023-05-18T11:37:01.674Z,779.90
2023-05-18T11:41:03.852Z,765.40
2023-05-18T11:44:55.924Z,502.70
2023-05-18T11:47:57.588Z,781.70
2023-05-18T11:50:50.217Z,778.40
2023-05-18T11:53:45.760Z,776.30
2023-05-18T11:57:36.894Z,780.60
2023-05-18T12:00:50.672Z,769.50
2023-05-18T12:03:28.021Z,779.30
2023-05-18T12:06:22.606Z,778.10
2023-05-18T12:09:07.957Z,784.60
2023-05-18T12:12:24.183Z,768.20
2023-05-18T12:15:06.444Z,778.40
2023-05-18T12:18:38.600Z,668.70
2023-05-18T12:26:57.342Z,780.20
2023-05-18T12:31:12.297Z,780.40
2023-05-18T12:35:14.398Z,673.30
2023-05-18T12:39:35.403Z,975.80
2023-05-18T13:01:29.049Z,801.20
2023-05-18T13:06:11.652Z,595.10
2023-05-18T13:10:44.684Z,592.70
2023-05-18T13:32:28.011Z,804.70
2023-05-18T13:36:58.353Z,759.00
2023-05-18T13:58:28.330Z,773.10
2023-05-18T14:02:57.754Z,770.20
2023-05-18T14:21:06.392Z,855.80
2023-05-18T14:25:35.585Z,540.80
2023-05-18T14:30:04.595Z,540.80
2023-05-18T14:38:29.853Z,777.90
2023-05-18T14:43:00.123Z,754.60
2023-05-18T15:09:15.221Z,623.90
2023-05-18T15:13:45.797Z,740.90
2023-05-18T15:31:06.182Z,544.10
2023-05-18T15:35:38.919Z,748.70
2023-05-18T15:43:43.880Z,762.50
2023-05-18T15:48:13.129Z,768.50
2023-05-18T15:52:34.860Z,775.70
2023-05-18T15:57:05.279Z,761.70
2023-05-18T16:15:26.460Z,798.60
2023-05-18T16:36:56.242Z,858.30
2023-05-18T16:41:25.818Z,138.70
2023-05-18T16:46:00.088Z,79.70
2023-05-18T17:03:20.278Z,115.70
2023-05-18T17:07:50.542Z,67.10
2023-05-18T17:29:30.667Z,361.30
2023-05-18T17:51:18.976Z,176.00
2023-05-18T17:55:47.829Z,301.90
2023-05-18T18:17:35.222Z,810.10
2023-05-18T18:22:04.693Z,474.50
2023-05-18T18:26:34.768Z,435.20
2023-05-18T18:44:14.537Z,817.60
2023-05-18T18:48:43.901Z,809.40
2023-05-18T18:53:13.157Z,527.30
2023-05-18T18:57:42.489Z,812.50
2023-05-18T19:06:14.721Z,814.30
2023-05-18T19:10:44.477Z,813.70
2023-05-18T19:28:05.194Z,822.90
2023-05-18T19:32:34.360Z,742.20
2023-05-18T19:37:04.897Z,745.40
2023-05-18T19:58:42.694Z,754.60
2023-05-18T20:03:12.332Z,738.20
2023-05-18T20:07:30.165Z,750.90
2023-05-18T20:15:58.036Z,756.40
2023-05-18T20:20:29.235Z,752.80
2023-05-18T20:24:59.510Z,744.30
2023-05-18T20:46:47.029Z,767.00
2023-05-18T20:51:15.915Z,758.00
2023-05-18T21:08:25.717Z,768.80
2023-05-18T21:12:55.080Z,751.00
2023-05-18T21:34:43.748Z,771.20
2023-05-18T21:39:13.283Z,755.10
2023-05-18T22:00:01.576Z,775.50
2023-05-18T22:04:31.113Z,775.20
2023-05-18T22:09:00.190Z,766.60
2023-05-18T22:26:19.882Z,784.30
2023-05-18T22:30:48.906Z,774.10
2023-05-18T22:56:54.488Z,796.40
2023-05-18T23:01:24.617Z,781.50
2023-05-18T23:22:49.295Z,804.00
2023-05-18T23:27:18.687Z,803.80
2023-05-18T23:31:47.500Z,792.90
2023-05-18T23:54:38.597Z,712.60
2023-05-18T23:58:56.372Z,622.80
